LIBF/FOG METAR and TAF weather

Enter ICAO airport designator
Station Type Date Time Source
LIBF METAR 2021/09/25 12:50 UTC NOAA

LIBF 251250Z 08010KT 050V110 CAVOK 29/11 Q1020


Station Type Date Time Source
LIBF Decoded METAR 2021/09/25 12:50 UTC NOAA

Station name not available
Sep 25, 2021 - 08:50 AM EDT / 2021.09.25 1250 UTC
Wind: from the E (080 degrees) at 12 MPH (10 KT) (direction variable):0
Visibility: greater than 7 mile(s):0
Temperature: 84 F (29 C)
Dew Point: 51 F (11 C)
Relative Humidity: 32%
Pressure (altimeter): 30.12 in. Hg (1020 hPa)
ob: LIBF 251250Z 08010KT 050V110 CAVOK 29/11 Q1020
cycle: 13

Station Type Date Time Source
LIBF TAF 2021/09/25 12:00 UTC NOAA

TAF LIBF 251100Z 2512/2612 08010KT CAVOK
BECMG 2417/2419 VRB04KT
BECMG 2608/2610 08010KT

Example: see airport list